createdAt,value
2023-09-08T00:01:01.955Z,100.00
2023-09-08T00:03:28.792Z,100.00
2023-09-08T00:05:56.838Z,100.00
2023-09-08T00:08:25.282Z,100.00
2023-09-08T00:10:53.180Z,100.00
2023-09-08T00:13:20.242Z,100.00
2023-09-08T00:15:50.054Z,100.00
2023-09-08T00:18:17.246Z,100.00
2023-09-08T00:20:44.155Z,100.00
2023-09-08T00:23:14.592Z,100.00
2023-09-08T00:25:41.729Z,100.00
2023-09-08T00:28:09.157Z,100.00
2023-09-08T00:30:36.411Z,100.00
2023-09-08T00:33:03.608Z,100.00
2023-09-08T00:35:31.564Z,100.00
2023-09-08T00:37:59.399Z,100.00
2023-09-08T00:40:29.115Z,100.00
2023-09-08T00:42:56.382Z,100.00
2023-09-08T00:45:30.829Z,100.00
2023-09-08T00:48:00.670Z,100.00
2023-09-08T00:50:27.687Z,100.00
2023-09-08T00:52:55.914Z,100.00
2023-09-08T00:55:26.060Z,100.00
2023-09-08T00:57:53.901Z,100.00
2023-09-08T01:00:23.748Z,100.00
2023-09-08T01:02:51.004Z,100.00
2023-09-08T01:05:21.563Z,100.00
2023-09-08T01:07:50.066Z,100.00
2023-09-08T01:10:17.688Z,100.00
2023-09-08T01:12:44.864Z,100.00
2023-09-08T01:15:15.361Z,100.00
2023-09-08T01:17:42.349Z,100.00
2023-09-08T01:20:18.594Z,100.00
2023-09-08T01:23:12.369Z,100.00
2023-09-08T01:26:07.320Z,100.00
2023-09-08T01:28:35.369Z,100.00
2023-09-08T01:31:13.186Z,100.00
2023-09-08T01:33:43.628Z,100.00
2023-09-08T01:36:11.044Z,100.00
2023-09-08T01:38:38.341Z,100.00
2023-09-08T01:41:05.717Z,100.00
2023-09-08T01:43:32.584Z,100.00
2023-09-08T01:46:01.692Z,100.00
2023-09-08T01:48:28.628Z,100.00
2023-09-08T01:50:57.492Z,100.00
2023-09-08T01:53:24.407Z,100.00
2023-09-08T01:55:51.429Z,100.00
2023-09-08T01:58:18.430Z,100.00
2023-09-08T02:00:50.831Z,100.00
2023-09-08T02:03:17.859Z,100.00
2023-09-08T02:05:46.209Z,100.00
2023-09-08T02:08:16.303Z,100.00
2023-09-08T02:10:43.506Z,100.00
2023-09-08T02:13:11.819Z,100.00
2023-09-08T02:15:39.846Z,100.00
2023-09-08T02:18:08.640Z,100.00
2023-09-08T02:20:35.746Z,100.00
2023-09-08T02:23:08.046Z,100.00
2023-09-08T02:25:35.323Z,100.00
2023-09-08T02:28:02.301Z,100.00
2023-09-08T02:30:30.242Z,100.00
2023-09-08T02:32:57.424Z,100.00
2023-09-08T02:35:28.070Z,100.00
2023-09-08T02:37:55.090Z,100.00
2023-09-08T02:40:22.296Z,100.00
2023-09-08T02:42:49.528Z,100.00
2023-09-08T02:45:16.458Z,100.00
2023-09-08T02:47:43.421Z,100.00
2023-09-08T02:50:11.822Z,100.00
2023-09-08T02:52:38.711Z,100.00
2023-09-08T02:55:08.154Z,100.00
2023-09-08T02:57:36.217Z,100.00
2023-09-08T03:00:03.510Z,100.00
2023-09-08T03:02:31.794Z,100.00
2023-09-08T03:05:00.355Z,100.00
2023-09-08T03:07:28.499Z,100.00
2023-09-08T03:09:56.770Z,100.00
2023-09-08T03:12:23.509Z,100.00
2023-09-08T03:14:53.120Z,100.00
2023-09-08T03:17:20.201Z,100.00
2023-09-08T03:19:47.805Z,100.00
2023-09-08T03:22:14.990Z,100.00
2023-09-08T03:24:43.887Z,100.00
2023-09-08T03:27:13.990Z,100.00
2023-09-08T03:29:41.944Z,100.00
2023-09-08T03:32:09.120Z,100.00
2023-09-08T03:34:40.712Z,100.00
2023-09-08T03:37:07.926Z,100.00
2023-09-08T03:39:34.978Z,100.00
2023-09-08T03:42:02.692Z,100.00
2023-09-08T03:44:34.890Z,100.00
2023-09-08T03:47:04.117Z,100.00
2023-09-08T03:49:31.283Z,100.00
2023-09-08T03:52:00.393Z,100.00
2023-09-08T03:54:27.160Z,100.00
2023-09-08T03:56:54.217Z,100.00
2023-09-08T03:59:21.152Z,100.00
2023-09-08T04:01:48.224Z,100.00
2023-09-08T04:04:15.638Z,100.00
2023-09-08T04:06:42.800Z,100.00
2023-09-08T04:09:09.916Z,100.00
2023-09-08T04:11:37.997Z,100.00
2023-09-08T04:14:04.845Z,100.00
2023-09-08T04:16:33.870Z,100.00
2023-09-08T04:19:00.690Z,100.00
2023-09-08T04:21:28.078Z,100.00
2023-09-08T04:23:55.270Z,100.00
2023-09-08T04:26:22.122Z,100.00
2023-09-08T04:28:51.159Z,100.00
2023-09-08T04:31:19.460Z,100.00
2023-09-08T04:33:46.574Z,100.00
2023-09-08T04:36:14.486Z,100.00
2023-09-08T04:38:43.488Z,100.00
2023-09-08T04:41:10.347Z,100.00
2023-09-08T04:43:37.588Z,100.00
2023-09-08T04:46:04.914Z,100.00
2023-09-08T04:48:31.911Z,100.00
2023-09-08T04:50:58.965Z,100.00
2023-09-08T04:53:25.998Z,100.00
2023-09-08T04:55:53.433Z,100.00
2023-09-08T04:58:21.800Z,100.00
2023-09-08T05:00:50.915Z,100.00
2023-09-08T05:03:17.823Z,100.00
2023-09-08T05:05:46.372Z,100.00
2023-09-08T05:08:13.740Z,100.00
2023-09-08T05:10:41.110Z,100.00
2023-09-08T05:13:14.058Z,100.00
2023-09-08T05:15:49.765Z,100.00
2023-09-08T05:18:16.899Z,100.00
2023-09-08T05:20:44.192Z,100.00
2023-09-08T05:23:11.080Z,100.00
2023-09-08T05:25:42.819Z,100.00
2023-09-08T05:28:09.649Z,100.00
2023-09-08T05:30:37.159Z,100.00
2023-09-08T05:33:04.102Z,100.00
2023-09-08T05:35:30.914Z,100.00
2023-09-08T05:37:57.869Z,100.00
2023-09-08T05:40:25.658Z,100.00
2023-09-08T05:42:53.185Z,100.00
2023-09-08T05:45:20.439Z,100.00
2023-09-08T05:47:50.373Z,100.00
2023-09-08T05:50:19.087Z,100.00
2023-09-08T05:52:46.364Z,100.00
2023-09-08T05:55:13.162Z,100.00
2023-09-08T05:57:41.973Z,100.00
2023-09-08T06:00:10.410Z,100.00
2023-09-08T06:02:37.356Z,100.00
2023-09-08T06:05:04.846Z,100.00
2023-09-08T06:07:32.131Z,100.00
2023-09-08T06:09:58.893Z,100.00
2023-09-08T06:12:25.890Z,100.00
2023-09-08T06:14:52.844Z,100.00
2023-09-08T06:17:19.652Z,100.00
2023-09-08T06:19:46.839Z,100.00
2023-09-08T06:22:14.721Z,100.00
2023-09-08T06:24:41.654Z,100.00
2023-09-08T06:27:08.714Z,100.00
2023-09-08T06:29:37.162Z,100.00
2023-09-08T06:32:04.144Z,100.00
2023-09-08T06:34:32.324Z,100.00
2023-09-08T06:36:59.517Z,100.00
2023-09-08T06:39:27.948Z,100.00
2023-09-08T06:41:56.138Z,100.00
2023-09-08T06:44:23.443Z,100.00
2023-09-08T06:46:51.407Z,100.00
2023-09-08T06:49:19.345Z,100.00
2023-09-08T06:51:48.690Z,100.00
2023-09-08T06:54:16.150Z,100.00
2023-09-08T06:56:43.481Z,100.00
2023-09-08T06:59:10.766Z,100.00
2023-09-08T07:01:39.536Z,100.00
2023-09-08T07:04:07.344Z,100.00
2023-09-08T07:06:38.282Z,100.00
2023-09-08T07:09:05.915Z,100.00
2023-09-08T07:11:33.077Z,100.00
2023-09-08T07:14:02.087Z,100.00
2023-09-08T07:16:29.077Z,100.00
2023-09-08T07:18:55.901Z,100.00
2023-09-08T07:21:23.927Z,100.00
2023-09-08T07:23:52.918Z,100.00
2023-09-08T07:26:19.797Z,100.00
2023-09-08T07:28:50.114Z,100.00
2023-09-08T07:31:17.389Z,100.00
2023-09-08T07:33:45.037Z,100.00
2023-09-08T07:36:12.962Z,100.00
2023-09-08T07:38:40.315Z,100.00
2023-09-08T07:41:07.131Z,100.00
2023-09-08T07:43:41.721Z,100.00
2023-09-08T07:46:09.359Z,100.00
2023-09-08T07:48:37.050Z,100.00
2023-09-08T07:51:04.238Z,100.00
2023-09-08T07:53:32.151Z,100.00
2023-09-08T07:55:59.094Z,100.00
2023-09-08T07:58:26.174Z,100.00
2023-09-08T08:00:55.928Z,100.00
2023-09-08T08:03:22.747Z,100.00
2023-09-08T08:05:51.409Z,99.58
2023-09-08T08:08:18.368Z,97.86
2023-09-08T08:10:45.309Z,94.84
2023-09-08T08:13:13.336Z,97.34
2023-09-08T08:15:43.905Z,98.52
2023-09-08T08:18:14.414Z,96.83
2023-09-08T08:20:41.319Z,95.65
2023-09-08T08:23:10.348Z,91.11
2023-09-08T08:25:37.453Z,91.09
2023-09-08T08:28:04.953Z,91.68
2023-09-08T08:30:33.658Z,87.84
2023-09-08T08:33:00.706Z,90.29
2023-09-08T08:35:27.611Z,87.65
2023-09-08T08:38:02.032Z,87.21
2023-09-08T08:40:29.538Z,88.77
2023-09-08T08:43:02.612Z,89.22
2023-09-08T08:45:31.326Z,84.20
2023-09-08T08:48:02.503Z,84.33
2023-09-08T08:50:31.944Z,82.18
2023-09-08T08:53:03.543Z,82.78
2023-09-08T08:55:31.832Z,84.83
2023-09-08T08:58:05.590Z,80.34
2023-09-08T09:00:35.328Z,78.32
2023-09-08T09:03:14.177Z,76.09
2023-09-08T09:05:48.423Z,79.00
2023-09-08T09:08:18.004Z,77.99
2023-09-08T09:10:45.210Z,78.17
2023-09-08T09:13:13.247Z,76.19
2023-09-08T09:15:43.922Z,76.24
2023-09-08T09:18:11.152Z,74.09
2023-09-08T09:20:39.362Z,71.18
2023-09-08T09:23:06.616Z,67.98
2023-09-08T09:25:34.077Z,69.57
2023-09-08T09:28:04.024Z,68.97
2023-09-08T09:30:55.452Z,66.50
2023-09-08T09:33:24.805Z,65.39
2023-09-08T09:35:55.775Z,66.47
2023-09-08T09:38:27.745Z,62.93
2023-09-08T09:40:55.397Z,64.05
2023-09-08T09:43:26.207Z,64.03
2023-09-08T09:45:54.747Z,67.68
2023-09-08T09:48:25.124Z,63.05
2023-09-08T09:50:55.157Z,64.67
2023-09-08T09:53:22.728Z,64.47
2023-09-08T09:55:52.444Z,62.47
2023-09-08T09:58:21.960Z,60.71
2023-09-08T10:00:50.725Z,58.44
2023-09-08T10:03:19.206Z,57.18
2023-09-08T10:05:48.382Z,56.44
2023-09-08T10:08:15.679Z,54.78
2023-09-08T10:10:47.133Z,53.54
2023-09-08T10:13:19.315Z,52.58
2023-09-08T10:15:47.574Z,51.46
2023-09-08T10:18:17.794Z,50.60
2023-09-08T10:20:46.158Z,50.47
2023-09-08T10:23:52.124Z,49.28
2023-09-08T10:26:19.585Z,48.95
2023-09-08T10:28:47.161Z,49.27
2023-09-08T10:31:18.277Z,48.99
2023-09-08T10:33:46.747Z,48.42
2023-09-08T10:36:14.602Z,46.51
2023-09-08T10:38:42.771Z,46.80
2023-09-08T10:41:30.586Z,45.89
2023-09-08T10:44:02.151Z,46.78
2023-09-08T10:46:31.001Z,46.82
2023-09-08T10:49:07.883Z,46.55
2023-09-08T10:51:35.994Z,48.95
2023-09-08T10:54:03.434Z,48.24
2023-09-08T10:56:53.301Z,49.15
2023-09-08T10:59:20.881Z,49.99
2023-09-08T11:01:49.068Z,50.19
2023-09-08T11:04:20.591Z,48.63
2023-09-08T11:06:47.903Z,48.08
2023-09-08T11:09:15.402Z,48.76
2023-09-08T11:11:43.211Z,49.43
2023-09-08T11:14:12.356Z,48.78
2023-09-08T11:16:39.414Z,49.00
2023-09-08T11:19:06.336Z,49.02
2023-09-08T11:21:36.363Z,46.52
2023-09-08T11:24:06.026Z,44.87
2023-09-08T11:26:36.595Z,44.09
2023-09-08T11:29:04.178Z,40.79
2023-09-08T11:31:31.286Z,39.35
2023-09-08T11:34:00.667Z,39.52
2023-09-08T11:36:31.788Z,39.72
2023-09-08T11:38:58.667Z,38.58
2023-09-08T11:41:26.824Z,36.64
2023-09-08T11:43:53.888Z,37.14
2023-09-08T11:46:21.391Z,37.30
2023-09-08T11:48:48.713Z,37.47
2023-09-08T11:51:17.028Z,38.35
2023-09-08T11:53:45.198Z,37.81
2023-09-08T11:56:12.500Z,37.70
2023-09-08T11:58:40.110Z,36.34
2023-09-08T12:01:11.040Z,36.54
2023-09-08T12:03:53.193Z,35.57
2023-09-08T12:06:20.507Z,35.84
2023-09-08T12:08:47.743Z,35.75
2023-09-08T12:11:16.705Z,36.06
2023-09-08T12:13:43.676Z,36.10
2023-09-08T12:16:20.704Z,36.53
2023-09-08T12:18:50.988Z,36.43
2023-09-08T12:21:18.245Z,36.57
2023-09-08T12:23:52.847Z,35.88
2023-09-08T12:26:25.396Z,34.77
2023-09-08T12:28:52.529Z,34.63
2023-09-08T12:31:20.919Z,33.86
2023-09-08T12:33:48.022Z,34.47
2023-09-08T12:36:19.916Z,34.21
2023-09-08T12:38:54.291Z,34.67
2023-09-08T12:41:21.472Z,33.23
2023-09-08T12:43:48.855Z,33.52
2023-09-08T12:46:19.985Z,32.97
2023-09-08T12:48:49.433Z,33.07
2023-09-08T12:51:16.486Z,33.94
2023-09-08T12:53:45.415Z,33.69
2023-09-08T12:56:12.351Z,33.34
2023-09-08T12:58:40.246Z,33.89
2023-09-08T13:01:08.467Z,34.52
2023-09-08T13:03:35.348Z,35.05
2023-09-08T13:06:02.159Z,35.13
2023-09-08T13:08:29.145Z,35.38
2023-09-08T13:10:57.255Z,34.18
2023-09-08T13:13:24.453Z,34.87
2023-09-08T13:15:53.591Z,34.24
2023-09-08T13:18:21.827Z,33.49
2023-09-08T13:20:48.942Z,33.42
2023-09-08T13:23:17.039Z,35.33
2023-09-08T13:25:45.878Z,33.66
2023-09-08T13:28:13.001Z,31.79
2023-09-08T13:30:40.801Z,32.32
2023-09-08T13:33:08.820Z,32.40
2023-09-08T13:35:35.712Z,32.28
2023-09-08T13:38:04.358Z,32.66
2023-09-08T13:40:32.209Z,32.47
2023-09-08T13:42:59.221Z,33.90
2023-09-08T13:45:27.829Z,35.20
2023-09-08T13:47:55.250Z,33.67
2023-09-08T13:50:26.941Z,32.54
2023-09-08T13:52:55.852Z,31.66
2023-09-08T13:55:37.078Z,29.81
2023-09-08T13:58:08.796Z,30.90
2023-09-08T14:00:39.089Z,31.63
2023-09-08T14:03:09.682Z,31.71
2023-09-08T14:05:45.471Z,31.30
2023-09-08T14:08:18.567Z,29.87
2023-09-08T14:13:26.507Z,31.07
2023-09-08T14:15:57.333Z,31.23
2023-09-08T14:18:25.919Z,30.84
2023-09-08T14:20:53.122Z,31.35
2023-09-08T14:23:19.862Z,29.59
2023-09-08T14:25:46.877Z,29.22
2023-09-08T14:28:13.982Z,29.16
2023-09-08T14:30:41.800Z,27.62
2023-09-08T14:33:08.788Z,27.44
2023-09-08T14:35:36.304Z,27.89
2023-09-08T14:38:04.178Z,27.80
2023-09-08T14:40:31.114Z,27.64
2023-09-08T14:42:58.156Z,27.34
2023-09-08T14:45:24.973Z,27.93
2023-09-08T14:47:53.133Z,27.68
2023-09-08T14:50:20.912Z,28.62
2023-09-08T14:52:47.805Z,29.66
2023-09-08T14:55:16.080Z,29.20
2023-09-08T14:57:43.436Z,27.66
2023-09-08T15:00:11.276Z,28.57
2023-09-08T15:02:38.406Z,28.94
2023-09-08T15:05:06.294Z,28.25
2023-09-08T15:07:33.179Z,27.69
2023-09-08T15:10:00.237Z,27.81
2023-09-08T15:12:28.090Z,27.18
2023-09-08T15:14:57.103Z,27.96
2023-09-08T15:17:24.129Z,28.01
2023-09-08T15:19:51.270Z,28.72
2023-09-08T15:22:18.482Z,30.61
2023-09-08T15:24:45.643Z,30.76
2023-09-08T15:27:13.120Z,29.54
2023-09-08T15:29:40.398Z,31.50
2023-09-08T15:32:09.282Z,33.11
2023-09-08T15:34:36.312Z,34.13
2023-09-08T15:37:05.286Z,32.67
2023-09-08T15:39:32.277Z,33.19
2023-09-08T15:41:59.172Z,32.00
2023-09-08T15:44:27.299Z,33.87
2023-09-08T15:46:54.530Z,34.80
2023-09-08T15:49:23.278Z,34.70
2023-09-08T15:52:00.718Z,35.24
2023-09-08T15:54:36.974Z,35.25
2023-09-08T15:57:04.539Z,35.69
2023-09-08T15:59:31.573Z,35.40
2023-09-08T16:01:58.875Z,34.69
2023-09-08T16:04:29.236Z,35.07
2023-09-08T16:06:56.364Z,35.26
2023-09-08T16:09:24.248Z,35.38
2023-09-08T16:11:51.304Z,36.57
2023-09-08T16:14:20.217Z,36.17
2023-09-08T16:16:48.254Z,36.19
2023-09-08T16:19:15.696Z,37.02
2023-09-08T16:21:43.872Z,36.33
2023-09-08T16:24:10.941Z,36.78
2023-09-08T16:26:37.973Z,36.30
2023-09-08T16:29:06.008Z,37.21
2023-09-08T16:31:32.899Z,38.17
2023-09-08T16:34:00.910Z,38.75
2023-09-08T16:36:27.836Z,40.81
2023-09-08T16:38:54.659Z,42.98
2023-09-08T16:41:21.615Z,44.25
2023-09-08T16:43:48.827Z,46.12
2023-09-08T16:46:15.747Z,46.96
2023-09-08T16:48:42.480Z,48.53
2023-09-08T16:51:09.525Z,50.36
2023-09-08T16:53:36.557Z,51.72
2023-09-08T16:56:09.944Z,53.83
2023-09-08T16:58:37.286Z,55.54
2023-09-08T17:01:06.402Z,58.18
2023-09-08T17:03:33.371Z,60.52
2023-09-08T17:06:01.390Z,61.08
2023-09-08T17:08:29.085Z,61.88
2023-09-08T17:10:58.321Z,63.42
2023-09-08T17:13:25.704Z,64.85
2023-09-08T17:15:52.831Z,65.36
2023-09-08T17:18:23.713Z,65.12
2023-09-08T17:20:51.305Z,65.77
2023-09-08T17:23:19.322Z,67.61
2023-09-08T17:25:47.211Z,71.04
2023-09-08T17:28:14.179Z,71.76
2023-09-08T17:30:41.900Z,71.42
2023-09-08T17:33:09.228Z,70.85
2023-09-08T17:35:37.416Z,73.45
2023-09-08T17:38:05.022Z,72.93
2023-09-08T17:40:32.946Z,73.36
2023-09-08T17:43:00.832Z,72.94
2023-09-08T17:45:27.941Z,73.73
2023-09-08T17:47:55.348Z,74.43
2023-09-08T17:50:25.935Z,75.53
2023-09-08T17:52:52.715Z,75.68
2023-09-08T17:55:19.833Z,76.95
2023-09-08T17:57:49.435Z,78.44
2023-09-08T18:00:25.846Z,78.19
2023-09-08T18:02:52.691Z,80.58
2023-09-08T18:05:19.967Z,82.63
2023-09-08T18:07:46.752Z,83.71
2023-09-08T18:10:15.149Z,84.79
2023-09-08T18:12:53.423Z,85.16
2023-09-08T18:15:20.439Z,85.32
2023-09-08T18:17:48.573Z,85.61
2023-09-08T18:20:15.685Z,85.40
2023-09-08T18:22:42.810Z,86.20
2023-09-08T18:25:09.950Z,88.18
2023-09-08T18:27:37.089Z,87.11
2023-09-08T18:30:05.600Z,86.12
2023-09-08T18:32:35.029Z,86.92
2023-09-08T18:35:02.059Z,88.11
2023-09-08T18:37:28.996Z,88.73
2023-09-08T18:39:55.893Z,89.15
2023-09-08T18:42:25.875Z,90.19
2023-09-08T18:44:52.901Z,91.52
2023-09-08T18:47:19.885Z,92.29
2023-09-08T18:49:51.059Z,92.57
2023-09-08T18:52:18.606Z,94.65
2023-09-08T18:54:45.757Z,94.84
2023-09-08T18:57:12.787Z,94.28
2023-09-08T18:59:39.789Z,93.61
2023-09-08T19:02:06.695Z,93.55
2023-09-08T19:04:34.853Z,95.51
2023-09-08T19:07:02.021Z,96.56
2023-09-08T19:09:30.035Z,96.08
2023-09-08T19:11:58.030Z,96.42
2023-09-08T19:14:29.631Z,95.71
2023-09-08T19:16:58.933Z,96.31
2023-09-08T19:19:26.092Z,97.53
2023-09-08T19:21:53.008Z,98.07
2023-09-08T19:24:20.431Z,97.94
2023-09-08T19:26:47.330Z,97.23
2023-09-08T19:29:17.241Z,96.60
2023-09-08T19:31:45.549Z,96.65
2023-09-08T19:34:12.813Z,100.00
2023-09-08T19:36:40.106Z,99.33
2023-09-08T19:39:08.305Z,99.42
2023-09-08T19:41:37.075Z,99.58
2023-09-08T19:44:04.884Z,100.00
2023-09-08T19:46:36.706Z,100.00
2023-09-08T19:49:03.935Z,100.00
2023-09-08T19:51:32.149Z,100.00
2023-09-08T19:54:01.477Z,100.00
2023-09-08T19:56:29.920Z,100.00
2023-09-08T19:58:57.069Z,100.00
2023-09-08T20:01:26.236Z,100.00
2023-09-08T20:03:53.439Z,100.00
2023-09-08T20:06:20.573Z,100.00
2023-09-08T20:08:47.445Z,100.00
2023-09-08T20:11:14.434Z,100.00
2023-09-08T20:13:41.497Z,100.00
2023-09-08T20:16:10.891Z,100.00
2023-09-08T20:18:38.539Z,100.00
2023-09-08T20:21:06.498Z,100.00
2023-09-08T20:23:35.826Z,100.00
2023-09-08T20:26:04.236Z,100.00
2023-09-08T20:28:33.059Z,100.00
2023-09-08T20:33:30.961Z,100.00
2023-09-08T20:35:58.214Z,100.00
2023-09-08T20:38:25.412Z,100.00
2023-09-08T20:40:53.715Z,100.00
2023-09-08T20:43:24.052Z,100.00
2023-09-08T20:45:57.161Z,100.00
2023-09-08T20:48:24.451Z,100.00
2023-09-08T20:51:21.482Z,100.00
2023-09-08T20:53:48.445Z,100.00
2023-09-08T20:56:15.434Z,100.00
2023-09-08T20:58:43.776Z,100.00
2023-09-08T21:01:11.369Z,100.00
2023-09-08T21:03:39.040Z,100.00
2023-09-08T21:06:07.026Z,100.00
2023-09-08T21:08:34.494Z,100.00
2023-09-08T21:11:03.305Z,100.00
2023-09-08T21:13:30.812Z,100.00
2023-09-08T21:15:57.695Z,100.00
2023-09-08T21:18:24.517Z,100.00
2023-09-08T21:20:51.495Z,100.00
2023-09-08T21:23:20.447Z,100.00
2023-09-08T21:25:47.454Z,100.00
2023-09-08T21:28:14.403Z,100.00
2023-09-08T21:30:41.254Z,100.00
2023-09-08T21:33:11.539Z,100.00
2023-09-08T21:35:39.162Z,100.00
2023-09-08T21:38:06.195Z,100.00
2023-09-08T21:40:33.311Z,100.00
2023-09-08T21:43:00.208Z,100.00
2023-09-08T21:45:28.051Z,100.00
2023-09-08T21:47:55.126Z,100.00
2023-09-08T21:50:23.593Z,100.00
2023-09-08T21:52:53.783Z,100.00
2023-09-08T21:55:25.038Z,100.00
2023-09-08T21:57:53.039Z,100.00
2023-09-08T22:00:22.454Z,100.00
2023-09-08T22:02:49.538Z,100.00
2023-09-08T22:05:17.912Z,100.00
2023-09-08T22:07:45.938Z,100.00
2023-09-08T22:10:14.059Z,100.00
2023-09-08T22:12:42.562Z,100.00
2023-09-08T22:15:10.402Z,100.00
2023-09-08T22:17:39.586Z,100.00
2023-09-08T22:20:14.507Z,100.00
2023-09-08T22:22:41.925Z,100.00
2023-09-08T22:25:12.312Z,100.00
2023-09-08T22:27:41.168Z,100.00
2023-09-08T22:30:09.510Z,100.00
2023-09-08T22:32:38.014Z,100.00
2023-09-08T22:35:06.114Z,100.00
2023-09-08T22:37:35.585Z,100.00
2023-09-08T22:40:06.790Z,100.00
2023-09-08T22:42:33.906Z,100.00
2023-09-08T22:45:02.553Z,100.00
2023-09-08T22:47:29.334Z,100.00
2023-09-08T22:50:07.926Z,100.00
2023-09-08T22:52:35.571Z,100.00
2023-09-08T22:55:17.528Z,100.00
2023-09-08T22:57:51.492Z,100.00
2023-09-08T23:00:18.845Z,100.00
2023-09-08T23:02:47.739Z,100.00
2023-09-08T23:05:15.169Z,100.00
2023-09-08T23:07:45.607Z,100.00
2023-09-08T23:10:15.262Z,100.00
2023-09-08T23:12:46.316Z,100.00
2023-09-08T23:15:14.988Z,100.00
2023-09-08T23:17:41.922Z,100.00
2023-09-08T23:20:16.053Z,100.00
2023-09-08T23:22:44.521Z,100.00
2023-09-08T23:25:11.931Z,100.00
2023-09-08T23:27:38.996Z,100.00
2023-09-08T23:30:07.193Z,100.00
2023-09-08T23:32:36.366Z,100.00
2023-09-08T23:35:05.344Z,100.00
2023-09-08T23:37:32.173Z,100.00
2023-09-08T23:40:00.272Z,100.00
2023-09-08T23:42:27.211Z,100.00
2023-09-08T23:44:54.125Z,100.00
2023-09-08T23:47:21.118Z,100.00
2023-09-08T23:49:47.952Z,100.00
2023-09-08T23:52:15.962Z,100.00
2023-09-08T23:54:43.865Z,100.00
2023-09-08T23:57:11.992Z,100.00
2023-09-08T23:59:38.790Z,100.00
